This is the latest recevied weather packets stored in our database for station/object W1LBM. If no packets are shown the sender has not sent any weather packets the latest 10 day(s).
| Time | Temp. | Humidity | Pressure | Rain* | Wind** | Luminosity | Snow |
|---|---|---|---|---|---|---|---|
| 1777659010 | 15° C | 45% | 1012.7 hPa | 0 mm | - | 317 W/m² | - |
| 1777658708 | 15.56° C | 42% | 1012.5 hPa | 0 mm | - | 237 W/m² | - |
| 1777658403 | 15.56° C | 42% | 1012.7 hPa | 0 mm | - | 717 W/m² | - |
| 1777658100 | 15° C | 44% | 1012.7 hPa | 0 mm | - | 718 W/m² | - |
| 1777657797 | 15° C | 45% | 1012.5 hPa | 0 mm | - | 712 W/m² | - |
| 1777657495 | 15° C | 45% | 1012.7 hPa | 0 mm | - | 713 W/m² | - |
| 1777657192 | 15° C | 44% | 1012.6 hPa | 0 mm | - | 710 W/m² | - |
| 1777656889 | 14.44° C | 45% | 1012.7 hPa | 0 mm | - | 709 W/m² | - |
| 1777656585 | 14.44° C | 47% | 1012.6 hPa | 0 mm | - | 724 W/m² | - |
| 1777656281 | 14.44° C | 47% | 1012.7 hPa | 0 mm | - | 747 W/m² | - |
| 1777655977 | 14.44° C | 47% | 1012.9 hPa | 0 mm | - | 736 W/m² | - |
| 1777655673 | 13.89° C | 48% | 1012.7 hPa | 0 mm | - | 734 W/m² | - |
| 1777655369 | 13.89° C | 51% | 1013 hPa | 0 mm | - | 488 W/m² | - |
| 1777655066 | 13.89° C | 45% | 1013.1 hPa | 0 mm | - | 740 W/m² | - |
| 1777654764 | 13.89° C | 49% | 1013 hPa | 0 mm | - | 730 W/m² | - |
| 1777654462 | 13.89° C | 50% | 1013 hPa | 0 mm | - | 700 W/m² | - |
| 1777654159 | 13.89° C | 49% | 1012.9 hPa | 0 mm | - | 794 W/m² | - |
| 1777653857 | 13.89° C | 51% | 1013.1 hPa | 0 mm | - | 457 W/m² | - |
| 1777653553 | 13.89° C | 49% | 1013.3 hPa | 0 mm | - | 773 W/m² | - |
| 1777653249 | 13.33° C | 55% | 1012.9 hPa | 0 mm | - | 783 W/m² | - |
| 1777652946 | 13.33° C | 53% | 1013 hPa | 0 mm | - | 314 W/m² | - |
| 1777652643 | 12.78° C | 55% | 1012.9 hPa | 0 mm | - | 173 W/m² | - |
| 1777652340 | 13.33° C | 50% | 1013.2 hPa | 0 mm | - | 249 W/m² | - |
| 1777652037 | 12.78° C | 52% | 1013.1 hPa | 0 mm | - | 789 W/m² | - |
| 1777651733 | 12.78° C | 53% | 1013.2 hPa | 0 mm | - | 236 W/m² | - |
* Rain latest hour (hover to see other rain measurements)
** Current wind speed in m/s (hover to see current wind gust speed)